sensor_id;sensor_type;location;lat;lon;timestamp;P1;durP1;ratioP1;P2;durP2;ratioP2
42430;SDS011;71905;47.466;19.024;2023-10-31T00:00:26;13.00;;;7.22;;
42430;SDS011;71905;47.466;19.024;2023-10-31T00:02:54;14.90;;;7.07;;
42430;SDS011;71905;47.466;19.024;2023-10-31T00:05:22;11.82;;;6.22;;
42430;SDS011;71905;47.466;19.024;2023-10-31T00:07:52;12.43;;;7.32;;
42430;SDS011;71905;47.466;19.024;2023-10-31T00:10:20;12.35;;;6.72;;
42430;SDS011;71905;47.466;19.024;2023-10-31T00:12:48;11.88;;;6.93;;
42430;SDS011;71905;47.466;19.024;2023-10-31T00:15:16;11.75;;;6.68;;
42430;SDS011;71905;47.466;19.024;2023-10-31T00:17:44;10.88;;;7.10;;
42430;SDS011;71905;47.466;19.024;2023-10-31T00:20:12;16.95;;;7.80;;
42430;SDS011;71905;47.466;19.024;2023-10-31T00:22:40;14.70;;;7.45;;
42430;SDS011;71905;47.466;19.024;2023-10-31T00:25:10;15.80;;;8.20;;
42430;SDS011;71905;47.466;19.024;2023-10-31T00:27:38;11.30;;;6.90;;
42430;SDS011;71905;47.466;19.024;2023-10-31T00:30:06;12.43;;;7.80;;
42430;SDS011;71905;47.466;19.024;2023-10-31T00:32:35;13.48;;;8.00;;
42430;SDS011;71905;47.466;19.024;2023-10-31T00:35:03;11.25;;;7.32;;
42430;SDS011;71905;47.466;19.024;2023-10-31T00:37:31;13.20;;;7.15;;
42430;SDS011;71905;47.466;19.024;2023-10-31T00:40:00;12.38;;;7.03;;
42430;SDS011;71905;47.466;19.024;2023-10-31T00:42:29;14.30;;;8.48;;
42430;SDS011;71905;47.466;19.024;2023-10-31T00:44:58;14.07;;;8.32;;
42430;SDS011;71905;47.466;19.024;2023-10-31T00:47:26;15.32;;;8.52;;
42430;SDS011;71905;47.466;19.024;2023-10-31T00:49:55;13.05;;;7.43;;
42430;SDS011;71905;47.466;19.024;2023-10-31T00:52:23;13.73;;;7.63;;
42430;SDS011;71905;47.466;19.024;2023-10-31T00:54:52;15.40;;;8.35;;
42430;SDS011;71905;47.466;19.024;2023-10-31T00:57:20;12.13;;;7.65;;
42430;SDS011;71905;47.466;19.024;2023-10-31T00:59:49;13.13;;;8.23;;
42430;SDS011;71905;47.466;19.024;2023-10-31T01:02:17;18.02;;;8.93;;
42430;SDS011;71905;47.466;19.024;2023-10-31T01:04:45;17.35;;;8.48;;
42430;SDS011;71905;47.466;19.024;2023-10-31T01:07:13;14.07;;;8.52;;
42430;SDS011;71905;47.466;19.024;2023-10-31T01:09:43;15.68;;;9.68;;
42430;SDS011;71905;47.466;19.024;2023-10-31T01:12:11;16.63;;;8.65;;
42430;SDS011;71905;47.466;19.024;2023-10-31T01:14:39;13.48;;;8.02;;
42430;SDS011;71905;47.466;19.024;2023-10-31T01:17:09;17.02;;;8.20;;
42430;SDS011;71905;47.466;19.024;2023-10-31T01:19:37;12.77;;;7.93;;
42430;SDS011;71905;47.466;19.024;2023-10-31T01:22:05;18.33;;;9.38;;
42430;SDS011;71905;47.466;19.024;2023-10-31T01:24:34;16.50;;;7.95;;
42430;SDS011;71905;47.466;19.024;2023-10-31T01:27:02;15.70;;;8.82;;
42430;SDS011;71905;47.466;19.024;2023-10-31T01:29:31;12.23;;;7.90;;
42430;SDS011;71905;47.466;19.024;2023-10-31T01:31:59;15.18;;;8.40;;
42430;SDS011;71905;47.466;19.024;2023-10-31T01:34:36;12.52;;;7.90;;
42430;SDS011;71905;47.466;19.024;2023-10-31T01:37:04;13.82;;;8.18;;
42430;SDS011;71905;47.466;19.024;2023-10-31T01:39:32;11.45;;;7.45;;
42430;SDS011;71905;47.466;19.024;2023-10-31T01:42:00;15.75;;;8.40;;
42430;SDS011;71905;47.466;19.024;2023-10-31T01:44:28;14.50;;;7.82;;
42430;SDS011;71905;47.466;19.024;2023-10-31T01:46:56;16.80;;;8.63;;
42430;SDS011;71905;47.466;19.024;2023-10-31T01:49:24;16.88;;;9.65;;
42430;SDS011;71905;47.466;19.024;2023-10-31T01:51:54;16.45;;;8.38;;
42430;SDS011;71905;47.466;19.024;2023-10-31T01:54:22;14.73;;;9.00;;
42430;SDS011;71905;47.466;19.024;2023-10-31T01:56:50;15.43;;;8.13;;
42430;SDS011;71905;47.466;19.024;2023-10-31T01:59:22;14.27;;;8.50;;
42430;SDS011;71905;47.466;19.024;2023-10-31T02:01:51;13.52;;;7.70;;
42430;SDS011;71905;47.466;19.024;2023-10-31T02:04:20;15.30;;;8.20;;
42430;SDS011;71905;47.466;19.024;2023-10-31T02:06:48;15.02;;;7.95;;
42430;SDS011;71905;47.466;19.024;2023-10-31T02:09:19;13.07;;;7.43;;
42430;SDS011;71905;47.466;19.024;2023-10-31T02:11:51;17.05;;;8.38;;
42430;SDS011;71905;47.466;19.024;2023-10-31T02:14:19;14.18;;;7.93;;
42430;SDS011;71905;47.466;19.024;2023-10-31T02:16:49;16.38;;;7.78;;
42430;SDS011;71905;47.466;19.024;2023-10-31T02:19:18;14.20;;;8.63;;
42430;SDS011;71905;47.466;19.024;2023-10-31T02:21:48;17.67;;;8.80;;
42430;SDS011;71905;47.466;19.024;2023-10-31T02:24:16;21.70;;;10.60;;
42430;SDS011;71905;47.466;19.024;2023-10-31T02:26:44;20.55;;;10.48;;
42430;SDS011;71905;47.466;19.024;2023-10-31T02:29:13;16.98;;;10.15;;
42430;SDS011;71905;47.466;19.024;2023-10-31T02:31:41;18.45;;;10.07;;
42430;SDS011;71905;47.466;19.024;2023-10-31T02:34:09;17.90;;;9.65;;
42430;SDS011;71905;47.466;19.024;2023-10-31T02:36:37;14.15;;;8.88;;
42430;SDS011;71905;47.466;19.024;2023-10-31T02:39:06;15.15;;;8.98;;
42430;SDS011;71905;47.466;19.024;2023-10-31T02:41:35;14.32;;;8.68;;
42430;SDS011;71905;47.466;19.024;2023-10-31T02:44:03;12.98;;;7.88;;
42430;SDS011;71905;47.466;19.024;2023-10-31T02:46:31;17.10;;;9.25;;
42430;SDS011;71905;47.466;19.024;2023-10-31T02:48:59;16.75;;;8.32;;
42430;SDS011;71905;47.466;19.024;2023-10-31T02:51:28;16.65;;;9.52;;
42430;SDS011;71905;47.466;19.024;2023-10-31T02:53:56;17.35;;;9.55;;
42430;SDS011;71905;47.466;19.024;2023-10-31T02:56:25;15.73;;;8.88;;
42430;SDS011;71905;47.466;19.024;2023-10-31T02:58:53;13.95;;;8.13;;
42430;SDS011;71905;47.466;19.024;2023-10-31T03:01:21;15.82;;;8.32;;
42430;SDS011;71905;47.466;19.024;2023-10-31T03:03:49;13.32;;;7.82;;
42430;SDS011;71905;47.466;19.024;2023-10-31T03:06:17;12.57;;;7.70;;
42430;SDS011;71905;47.466;19.024;2023-10-31T03:08:45;15.27;;;8.75;;
42430;SDS011;71905;47.466;19.024;2023-10-31T03:11:20;14.18;;;7.63;;
42430;SDS011;71905;47.466;19.024;2023-10-31T03:13:50;13.35;;;8.00;;
42430;SDS011;71905;47.466;19.024;2023-10-31T03:16:19;12.73;;;8.15;;
42430;SDS011;71905;47.466;19.024;2023-10-31T03:18:48;14.60;;;8.55;;
42430;SDS011;71905;47.466;19.024;2023-10-31T03:21:16;13.90;;;7.80;;
42430;SDS011;71905;47.466;19.024;2023-10-31T03:23:46;15.93;;;9.10;;
42430;SDS011;71905;47.466;19.024;2023-10-31T03:26:15;13.35;;;7.60;;
42430;SDS011;71905;47.466;19.024;2023-10-31T03:28:43;18.52;;;9.88;;
42430;SDS011;71905;47.466;19.024;2023-10-31T03:31:13;17.15;;;9.93;;
42430;SDS011;71905;47.466;19.024;2023-10-31T03:33:42;17.48;;;9.77;;
42430;SDS011;71905;47.466;19.024;2023-10-31T03:36:10;17.63;;;10.73;;
42430;SDS011;71905;47.466;19.024;2023-10-31T03:38:38;17.63;;;9.60;;
42430;SDS011;71905;47.466;19.024;2023-10-31T03:41:07;17.58;;;10.30;;
42430;SDS011;71905;47.466;19.024;2023-10-31T03:43:35;16.30;;;9.65;;
42430;SDS011;71905;47.466;19.024;2023-10-31T03:46:03;16.92;;;9.38;;
42430;SDS011;71905;47.466;19.024;2023-10-31T03:48:33;17.45;;;9.98;;
42430;SDS011;71905;47.466;19.024;2023-10-31T03:51:01;15.05;;;9.55;;
42430;SDS011;71905;47.466;19.024;2023-10-31T03:53:29;16.15;;;10.88;;
42430;SDS011;71905;47.466;19.024;2023-10-31T03:55:58;17.80;;;9.95;;
42430;SDS011;71905;47.466;19.024;2023-10-31T03:58:27;17.05;;;10.07;;
42430;SDS011;71905;47.466;19.024;2023-10-31T04:00:55;20.13;;;10.60;;
42430;SDS011;71905;47.466;19.024;2023-10-31T04:03:23;20.13;;;9.30;;
42430;SDS011;71905;47.466;19.024;2023-10-31T04:05:52;16.08;;;10.57;;
42430;SDS011;71905;47.466;19.024;2023-10-31T04:08:20;16.85;;;10.15;;
42430;SDS011;71905;47.466;19.024;2023-10-31T04:10:48;15.10;;;9.02;;
42430;SDS011;71905;47.466;19.024;2023-10-31T04:13:17;18.38;;;11.20;;
42430;SDS011;71905;47.466;19.024;2023-10-31T04:15:45;17.63;;;10.90;;
42430;SDS011;71905;47.466;19.024;2023-10-31T04:18:13;13.32;;;9.00;;
42430;SDS011;71905;47.466;19.024;2023-10-31T04:20:41;18.73;;;10.38;;
42430;SDS011;71905;47.466;19.024;2023-10-31T04:23:11;15.75;;;10.20;;
42430;SDS011;71905;47.466;19.024;2023-10-31T04:25:39;16.20;;;10.18;;
42430;SDS011;71905;47.466;19.024;2023-10-31T04:28:08;16.13;;;9.75;;
42430;SDS011;71905;47.466;19.024;2023-10-31T04:30:36;13.00;;;8.60;;
42430;SDS011;71905;47.466;19.024;2023-10-31T04:33:04;15.63;;;9.93;;
42430;SDS011;71905;47.466;19.024;2023-10-31T04:35:32;18.02;;;10.20;;
42430;SDS011;71905;47.466;19.024;2023-10-31T04:38:00;18.80;;;11.18;;
42430;SDS011;71905;47.466;19.024;2023-10-31T04:40:29;14.43;;;9.70;;
42430;SDS011;71905;47.466;19.024;2023-10-31T04:42:57;16.25;;;9.40;;
42430;SDS011;71905;47.466;19.024;2023-10-31T04:45:25;14.30;;;9.15;;
42430;SDS011;71905;47.466;19.024;2023-10-31T04:47:53;13.52;;;8.20;;
42430;SDS011;71905;47.466;19.024;2023-10-31T04:50:21;17.05;;;10.25;;
42430;SDS011;71905;47.466;19.024;2023-10-31T04:52:49;19.48;;;10.55;;
42430;SDS011;71905;47.466;19.024;2023-10-31T04:55:17;14.48;;;9.18;;
42430;SDS011;71905;47.466;19.024;2023-10-31T04:57:47;14.18;;;9.45;;
42430;SDS011;71905;47.466;19.024;2023-10-31T05:00:15;17.38;;;9.77;;
42430;SDS011;71905;47.466;19.024;2023-10-31T05:02:43;17.30;;;9.55;;
42430;SDS011;71905;47.466;19.024;2023-10-31T05:05:12;29.95;;;16.90;;
42430;SDS011;71905;47.466;19.024;2023-10-31T05:07:40;20.27;;;10.38;;
42430;SDS011;71905;47.466;19.024;2023-10-31T05:10:08;16.35;;;8.82;;
42430;SDS011;71905;47.466;19.024;2023-10-31T05:12:37;14.30;;;8.48;;
42430;SDS011;71905;47.466;19.024;2023-10-31T05:15:07;12.95;;;8.30;;
42430;SDS011;71905;47.466;19.024;2023-10-31T05:17:35;17.27;;;9.68;;
42430;SDS011;71905;47.466;19.024;2023-10-31T05:20:04;13.18;;;8.77;;
42430;SDS011;71905;47.466;19.024;2023-10-31T05:22:32;15.40;;;9.77;;
42430;SDS011;71905;47.466;19.024;2023-10-31T05:25:00;14.93;;;8.98;;
42430;SDS011;71905;47.466;19.024;2023-10-31T05:27:29;14.95;;;9.75;;
42430;SDS011;71905;47.466;19.024;2023-10-31T05:30:00;14.43;;;9.10;;
42430;SDS011;71905;47.466;19.024;2023-10-31T05:32:29;14.55;;;8.75;;
42430;SDS011;71905;47.466;19.024;2023-10-31T05:34:57;13.70;;;7.90;;
42430;SDS011;71905;47.466;19.024;2023-10-31T05:37:26;10.80;;;7.70;;
42430;SDS011;71905;47.466;19.024;2023-10-31T05:39:54;17.27;;;9.15;;
42430;SDS011;71905;47.466;19.024;2023-10-31T05:42:22;14.20;;;8.43;;
42430;SDS011;71905;47.466;19.024;2023-10-31T05:44:51;16.40;;;9.07;;
42430;SDS011;71905;47.466;19.024;2023-10-31T05:47:19;13.38;;;7.93;;
42430;SDS011;71905;47.466;19.024;2023-10-31T05:49:49;14.35;;;8.98;;
42430;SDS011;71905;47.466;19.024;2023-10-31T05:52:18;16.60;;;9.50;;
42430;SDS011;71905;47.466;19.024;2023-10-31T05:54:46;11.88;;;7.85;;
42430;SDS011;71905;47.466;19.024;2023-10-31T05:57:14;15.20;;;8.93;;
42430;SDS011;71905;47.466;19.024;2023-10-31T05:59:42;11.45;;;7.70;;
42430;SDS011;71905;47.466;19.024;2023-10-31T06:02:11;13.68;;;7.13;;
42430;SDS011;71905;47.466;19.024;2023-10-31T06:04:39;19.60;;;8.93;;
42430;SDS011;71905;47.466;19.024;2023-10-31T06:07:08;18.40;;;8.48;;
42430;SDS011;71905;47.466;19.024;2023-10-31T06:09:38;10.23;;;7.22;;
42430;SDS011;71905;47.466;19.024;2023-10-31T06:12:06;14.52;;;7.30;;
42430;SDS011;71905;47.466;19.024;2023-10-31T06:14:34;13.30;;;7.68;;
42430;SDS011;71905;47.466;19.024;2023-10-31T06:17:02;15.23;;;8.23;;
42430;SDS011;71905;47.466;19.024;2023-10-31T06:19:33;14.25;;;8.60;;
42430;SDS011;71905;47.466;19.024;2023-10-31T06:22:01;14.90;;;8.80;;
42430;SDS011;71905;47.466;19.024;2023-10-31T06:24:31;16.35;;;8.60;;
42430;SDS011;71905;47.466;19.024;2023-10-31T06:26:59;12.85;;;6.88;;
42430;SDS011;71905;47.466;19.024;2023-10-31T06:29:27;9.90;;;6.32;;
42430;SDS011;71905;47.466;19.024;2023-10-31T06:32:15;14.40;;;9.23;;
42430;SDS011;71905;47.466;19.024;2023-10-31T06:34:43;12.68;;;8.90;;
42430;SDS011;71905;47.466;19.024;2023-10-31T06:37:11;13.20;;;7.47;;
42430;SDS011;71905;47.466;19.024;2023-10-31T06:39:42;9.95;;;6.72;;
42430;SDS011;71905;47.466;19.024;2023-10-31T06:42:10;10.32;;;6.50;;
42430;SDS011;71905;47.466;19.024;2023-10-31T06:44:37;11.98;;;6.53;;
42430;SDS011;71905;47.466;19.024;2023-10-31T06:47:04;11.23;;;6.65;;
42430;SDS011;71905;47.466;19.024;2023-10-31T06:49:33;12.77;;;6.60;;
42430;SDS011;71905;47.466;19.024;2023-10-31T06:52:04;9.80;;;6.40;;
42430;SDS011;71905;47.466;19.024;2023-10-31T06:54:32;12.95;;;7.07;;
42430;SDS011;71905;47.466;19.024;2023-10-31T06:57:03;11.05;;;6.10;;
42430;SDS011;71905;47.466;19.024;2023-10-31T06:59:31;10.60;;;6.45;;
42430;SDS011;71905;47.466;19.024;2023-10-31T07:01:59;10.38;;;5.78;;
42430;SDS011;71905;47.466;19.024;2023-10-31T07:04:27;10.48;;;5.72;;
42430;SDS011;71905;47.466;19.024;2023-10-31T07:06:55;11.05;;;6.75;;
42430;SDS011;71905;47.466;19.024;2023-10-31T07:09:24;11.43;;;6.30;;
42430;SDS011;71905;47.466;19.024;2023-10-31T07:11:53;8.98;;;5.65;;
42430;SDS011;71905;47.466;19.024;2023-10-31T07:14:22;11.52;;;5.72;;
42430;SDS011;71905;47.466;19.024;2023-10-31T07:16:50;9.57;;;5.22;;
42430;SDS011;71905;47.466;19.024;2023-10-31T07:19:18;9.82;;;5.70;;
42430;SDS011;71905;47.466;19.024;2023-10-31T07:21:46;8.75;;;5.47;;
42430;SDS011;71905;47.466;19.024;2023-10-31T07:24:14;9.13;;;5.55;;
42430;SDS011;71905;47.466;19.024;2023-10-31T07:26:42;8.63;;;4.80;;
42430;SDS011;71905;47.466;19.024;2023-10-31T07:29:10;10.65;;;6.30;;
42430;SDS011;71905;47.466;19.024;2023-10-31T07:31:40;12.75;;;6.30;;
42430;SDS011;71905;47.466;19.024;2023-10-31T07:34:08;10.05;;;6.35;;
42430;SDS011;71905;47.466;19.024;2023-10-31T07:36:37;12.25;;;6.20;;
42430;SDS011;71905;47.466;19.024;2023-10-31T07:39:23;10.23;;;5.63;;
42430;SDS011;71905;47.466;19.024;2023-10-31T07:41:51;10.85;;;6.10;;
42430;SDS011;71905;47.466;19.024;2023-10-31T07:44:19;9.27;;;5.63;;
42430;SDS011;71905;47.466;19.024;2023-10-31T07:46:48;10.45;;;5.20;;
42430;SDS011;71905;47.466;19.024;2023-10-31T07:49:16;10.70;;;5.25;;
42430;SDS011;71905;47.466;19.024;2023-10-31T07:51:44;9.10;;;5.28;;
42430;SDS011;71905;47.466;19.024;2023-10-31T07:54:14;11.80;;;5.53;;
42430;SDS011;71905;47.466;19.024;2023-10-31T07:56:43;9.55;;;4.95;;
42430;SDS011;71905;47.466;19.024;2023-10-31T07:59:11;10.23;;;4.80;;
42430;SDS011;71905;47.466;19.024;2023-10-31T08:01:40;7.18;;;4.30;;
42430;SDS011;71905;47.466;19.024;2023-10-31T08:04:09;10.93;;;4.40;;
42430;SDS011;71905;47.466;19.024;2023-10-31T08:06:37;7.95;;;4.00;;
42430;SDS011;71905;47.466;19.024;2023-10-31T08:09:05;7.93;;;3.95;;
42430;SDS011;71905;47.466;19.024;2023-10-31T08:11:35;12.13;;;3.80;;
42430;SDS011;71905;47.466;19.024;2023-10-31T08:14:03;7.68;;;3.70;;
42430;SDS011;71905;47.466;19.024;2023-10-31T08:16:31;8.82;;;4.05;;
42430;SDS011;71905;47.466;19.024;2023-10-31T08:18:59;6.32;;;3.50;;
42430;SDS011;71905;47.466;19.024;2023-10-31T08:21:28;7.65;;;3.65;;
42430;SDS011;71905;47.466;19.024;2023-10-31T08:24:01;8.60;;;3.63;;
42430;SDS011;71905;47.466;19.024;2023-10-31T08:26:29;8.77;;;3.45;;
42430;SDS011;71905;47.466;19.024;2023-10-31T08:28:57;8.50;;;4.00;;
42430;SDS011;71905;47.466;19.024;2023-10-31T08:31:25;7.70;;;3.55;;
42430;SDS011;71905;47.466;19.024;2023-10-31T08:33:53;8.98;;;3.65;;
42430;SDS011;71905;47.466;19.024;2023-10-31T08:36:21;8.80;;;3.90;;
42430;SDS011;71905;47.466;19.024;2023-10-31T08:38:51;7.55;;;3.35;;
42430;SDS011;71905;47.466;19.024;2023-10-31T08:41:19;7.20;;;3.10;;
42430;SDS011;71905;47.466;19.024;2023-10-31T08:43:47;6.88;;;2.80;;
42430;SDS011;71905;47.466;19.024;2023-10-31T08:46:15;6.93;;;3.10;;
42430;SDS011;71905;47.466;19.024;2023-10-31T08:48:43;7.65;;;3.67;;
42430;SDS011;71905;47.466;19.024;2023-10-31T08:51:11;7.75;;;2.75;;
42430;SDS011;71905;47.466;19.024;2023-10-31T08:53:39;5.75;;;2.95;;
42430;SDS011;71905;47.466;19.024;2023-10-31T08:56:09;6.25;;;2.70;;
42430;SDS011;71905;47.466;19.024;2023-10-31T08:58:37;7.63;;;3.10;;
42430;SDS011;71905;47.466;19.024;2023-10-31T09:01:05;7.45;;;2.78;;
42430;SDS011;71905;47.466;19.024;2023-10-31T09:03:33;8.38;;;3.70;;
42430;SDS011;71905;47.466;19.024;2023-10-31T09:06:01;7.20;;;3.50;;
42430;SDS011;71905;47.466;19.024;2023-10-31T09:08:30;7.10;;;2.90;;
42430;SDS011;71905;47.466;19.024;2023-10-31T09:10:58;8.82;;;3.20;;
42430;SDS011;71905;47.466;19.024;2023-10-31T09:13:29;6.38;;;2.38;;
42430;SDS011;71905;47.466;19.024;2023-10-31T09:15:57;9.98;;;2.75;;
42430;SDS011;71905;47.466;19.024;2023-10-31T09:18:26;7.95;;;2.78;;
42430;SDS011;71905;47.466;19.024;2023-10-31T09:20:54;8.07;;;2.70;;
42430;SDS011;71905;47.466;19.024;2023-10-31T09:23:22;6.70;;;2.90;;
42430;SDS011;71905;47.466;19.024;2023-10-31T09:25:50;9.65;;;2.92;;
42430;SDS011;71905;47.466;19.024;2023-10-31T09:28:18;7.00;;;3.00;;
42430;SDS011;71905;47.466;19.024;2023-10-31T09:30:48;6.82;;;2.63;;
42430;SDS011;71905;47.466;19.024;2023-10-31T09:33:16;9.05;;;3.03;;
42430;SDS011;71905;47.466;19.024;2023-10-31T09:35:44;7.13;;;2.65;;
42430;SDS011;71905;47.466;19.024;2023-10-31T09:38:12;4.93;;;2.40;;
42430;SDS011;71905;47.466;19.024;2023-10-31T09:40:40;12.52;;;3.53;;
42430;SDS011;71905;47.466;19.024;2023-10-31T09:43:08;6.50;;;2.50;;
42430;SDS011;71905;47.466;19.024;2023-10-31T09:45:37;6.65;;;2.25;;
42430;SDS011;71905;47.466;19.024;2023-10-31T09:48:07;9.50;;;2.78;;
42430;SDS011;71905;47.466;19.024;2023-10-31T09:50:35;9.27;;;2.80;;
42430;SDS011;71905;47.466;19.024;2023-10-31T09:53:05;6.60;;;2.30;;
42430;SDS011;71905;47.466;19.024;2023-10-31T09:55:33;6.72;;;2.60;;
42430;SDS011;71905;47.466;19.024;2023-10-31T09:58:03;8.85;;;2.30;;
42430;SDS011;71905;47.466;19.024;2023-10-31T10:00:31;7.90;;;2.55;;
42430;SDS011;71905;47.466;19.024;2023-10-31T10:03:00;8.18;;;2.55;;
42430;SDS011;71905;47.466;19.024;2023-10-31T10:05:29;6.93;;;2.88;;
42430;SDS011;71905;47.466;19.024;2023-10-31T10:07:59;10.13;;;3.50;;
42430;SDS011;71905;47.466;19.024;2023-10-31T10:10:27;7.38;;;2.70;;
42430;SDS011;71905;47.466;19.024;2023-10-31T10:12:55;7.22;;;2.92;;
42430;SDS011;71905;47.466;19.024;2023-10-31T10:15:25;5.95;;;2.20;;
42430;SDS011;71905;47.466;19.024;2023-10-31T10:17:56;8.70;;;3.03;;
42430;SDS011;71905;47.466;19.024;2023-10-31T10:20:25;6.72;;;2.30;;
42430;SDS011;71905;47.466;19.024;2023-10-31T10:22:54;8.70;;;2.92;;
42430;SDS011;71905;47.466;19.024;2023-10-31T10:25:30;6.85;;;2.47;;
42430;SDS011;71905;47.466;19.024;2023-10-31T10:28:09;7.93;;;2.50;;
42430;SDS011;71905;47.466;19.024;2023-10-31T10:30:39;6.38;;;2.20;;
42430;SDS011;71905;47.466;19.024;2023-10-31T10:33:07;5.10;;;2.50;;
42430;SDS011;71905;47.466;19.024;2023-10-31T10:35:35;6.00;;;2.65;;
42430;SDS011;71905;47.466;19.024;2023-10-31T10:38:05;6.40;;;2.70;;
42430;SDS011;71905;47.466;19.024;2023-10-31T10:40:37;9.85;;;2.97;;
42430;SDS011;71905;47.466;19.024;2023-10-31T10:43:08;7.03;;;3.28;;
42430;SDS011;71905;47.466;19.024;2023-10-31T10:45:41;8.43;;;3.10;;
42430;SDS011;71905;47.466;19.024;2023-10-31T10:48:11;6.00;;;2.95;;
42430;SDS011;71905;47.466;19.024;2023-10-31T10:50:42;6.15;;;2.70;;
42430;SDS011;71905;47.466;19.024;2023-10-31T10:53:24;7.32;;;2.90;;
42430;SDS011;71905;47.466;19.024;2023-10-31T10:55:55;5.35;;;2.70;;
42430;SDS011;71905;47.466;19.024;2023-10-31T10:58:31;6.47;;;2.65;;
42430;SDS011;71905;47.466;19.024;2023-10-31T11:01:04;7.13;;;2.80;;
42430;SDS011;71905;47.466;19.024;2023-10-31T11:03:33;8.52;;;2.80;;
42430;SDS011;71905;47.466;19.024;2023-10-31T11:06:02;8.90;;;3.10;;
42430;SDS011;71905;47.466;19.024;2023-10-31T11:08:32;7.22;;;3.05;;
42430;SDS011;71905;47.466;19.024;2023-10-31T11:11:01;5.70;;;2.78;;
42430;SDS011;71905;47.466;19.024;2023-10-31T11:13:30;5.72;;;2.97;;
42430;SDS011;71905;47.466;19.024;2023-10-31T11:15:59;8.40;;;2.63;;
42430;SDS011;71905;47.466;19.024;2023-10-31T11:18:35;8.30;;;2.95;;
42430;SDS011;71905;47.466;19.024;2023-10-31T11:21:04;6.75;;;2.40;;
42430;SDS011;71905;47.466;19.024;2023-10-31T11:23:33;7.05;;;2.97;;
42430;SDS011;71905;47.466;19.024;2023-10-31T11:26:03;6.88;;;2.38;;
42430;SDS011;71905;47.466;19.024;2023-10-31T11:28:32;14.38;;;3.00;;
42430;SDS011;71905;47.466;19.024;2023-10-31T11:31:00;6.95;;;2.63;;
42430;SDS011;71905;47.466;19.024;2023-10-31T11:33:29;8.40;;;2.72;;
42430;SDS011;71905;47.466;19.024;2023-10-31T11:36:01;5.25;;;2.22;;
42430;SDS011;71905;47.466;19.024;2023-10-31T11:38:35;5.93;;;2.35;;
42430;SDS011;71905;47.466;19.024;2023-10-31T11:41:04;6.10;;;2.25;;
42430;SDS011;71905;47.466;19.024;2023-10-31T11:46:22;3.67;;;1.83;;
42430;SDS011;71905;47.466;19.024;2023-10-31T11:49:02;7.20;;;2.17;;
42430;SDS011;71905;47.466;19.024;2023-10-31T11:51:32;6.22;;;2.20;;
42430;SDS011;71905;47.466;19.024;2023-10-31T11:54:02;6.68;;;2.38;;
42430;SDS011;71905;47.466;19.024;2023-10-31T11:56:34;6.82;;;2.80;;
42430;SDS011;71905;47.466;19.024;2023-10-31T11:59:02;12.15;;;2.90;;
42430;SDS011;71905;47.466;19.024;2023-10-31T12:01:33;7.78;;;2.65;;
42430;SDS011;71905;47.466;19.024;2023-10-31T12:04:01;15.48;;;7.20;;
42430;SDS011;71905;47.466;19.024;2023-10-31T12:06:33;12.82;;;6.15;;
42430;SDS011;71905;47.466;19.024;2023-10-31T12:09:03;11.15;;;4.15;;
42430;SDS011;71905;47.466;19.024;2023-10-31T12:11:31;7.15;;;3.25;;
42430;SDS011;71905;47.466;19.024;2023-10-31T12:13:59;7.53;;;2.75;;
42430;SDS011;71905;47.466;19.024;2023-10-31T12:16:32;6.45;;;2.85;;
42430;SDS011;71905;47.466;19.024;2023-10-31T12:19:02;6.18;;;2.33;;
42430;SDS011;71905;47.466;19.024;2023-10-31T12:21:35;5.05;;;2.35;;
42430;SDS011;71905;47.466;19.024;2023-10-31T12:24:05;7.93;;;2.67;;
42430;SDS011;71905;47.466;19.024;2023-10-31T12:26:33;11.90;;;3.33;;
42430;SDS011;71905;47.466;19.024;2023-10-31T12:29:08;9.43;;;3.30;;
42430;SDS011;71905;47.466;19.024;2023-10-31T12:31:44;11.55;;;3.38;;
42430;SDS011;71905;47.466;19.024;2023-10-31T12:34:13;13.13;;;3.92;;
42430;SDS011;71905;47.466;19.024;2023-10-31T12:36:41;11.40;;;3.65;;
42430;SDS011;71905;47.466;19.024;2023-10-31T12:39:12;14.18;;;4.50;;
42430;SDS011;71905;47.466;19.024;2023-10-31T12:41:40;9.35;;;3.78;;
42430;SDS011;71905;47.466;19.024;2023-10-31T12:44:09;9.23;;;3.80;;
42430;SDS011;71905;47.466;19.024;2023-10-31T12:46:38;10.77;;;4.07;;
42430;SDS011;71905;47.466;19.024;2023-10-31T12:49:11;9.38;;;3.88;;
42430;SDS011;71905;47.466;19.024;2023-10-31T12:51:54;9.50;;;4.38;;
42430;SDS011;71905;47.466;19.024;2023-10-31T12:54:28;11.32;;;4.80;;
42430;SDS011;71905;47.466;19.024;2023-10-31T12:57:01;7.68;;;4.03;;
42430;SDS011;71905;47.466;19.024;2023-10-31T12:59:31;7.03;;;4.00;;
42430;SDS011;71905;47.466;19.024;2023-10-31T13:01:59;9.48;;;4.95;;
42430;SDS011;71905;47.466;19.024;2023-10-31T13:04:28;12.15;;;4.57;;
42430;SDS011;71905;47.466;19.024;2023-10-31T13:06:57;12.75;;;5.22;;
42430;SDS011;71905;47.466;19.024;2023-10-31T13:09:30;11.95;;;4.68;;
42430;SDS011;71905;47.466;19.024;2023-10-31T13:12:02;10.95;;;5.30;;
42430;SDS011;71905;47.466;19.024;2023-10-31T13:14:32;11.45;;;5.25;;
42430;SDS011;71905;47.466;19.024;2023-10-31T13:17:01;12.50;;;5.72;;
42430;SDS011;71905;47.466;19.024;2023-10-31T13:19:30;11.57;;;5.30;;
42430;SDS011;71905;47.466;19.024;2023-10-31T13:21:58;10.90;;;4.90;;
42430;SDS011;71905;47.466;19.024;2023-10-31T13:24:26;13.68;;;5.90;;
42430;SDS011;71905;47.466;19.024;2023-10-31T13:26:55;12.07;;;5.85;;
42430;SDS011;71905;47.466;19.024;2023-10-31T13:29:23;11.75;;;5.80;;
42430;SDS011;71905;47.466;19.024;2023-10-31T13:31:54;10.55;;;5.22;;
42430;SDS011;71905;47.466;19.024;2023-10-31T13:34:22;12.00;;;4.20;;
42430;SDS011;71905;47.466;19.024;2023-10-31T13:36:51;13.02;;;4.40;;
42430;SDS011;71905;47.466;19.024;2023-10-31T13:39:21;10.13;;;4.72;;
42430;SDS011;71905;47.466;19.024;2023-10-31T13:41:50;9.15;;;4.50;;
42430;SDS011;71905;47.466;19.024;2023-10-31T13:44:19;5.32;;;3.17;;
42430;SDS011;71905;47.466;19.024;2023-10-31T13:46:47;3.38;;;2.58;;
42430;SDS011;71905;47.466;19.024;2023-10-31T13:49:15;4.40;;;2.50;;
42430;SDS011;71905;47.466;19.024;2023-10-31T13:51:43;4.72;;;2.30;;
42430;SDS011;71905;47.466;19.024;2023-10-31T13:54:12;4.68;;;2.25;;
42430;SDS011;71905;47.466;19.024;2023-10-31T13:56:40;4.80;;;1.80;;
42430;SDS011;71905;47.466;19.024;2023-10-31T13:59:08;2.50;;;1.50;;
42430;SDS011;71905;47.466;19.024;2023-10-31T14:01:38;2.47;;;1.50;;
42430;SDS011;71905;47.466;19.024;2023-10-31T14:04:06;2.28;;;1.50;;
42430;SDS011;71905;47.466;19.024;2023-10-31T14:06:35;2.75;;;1.60;;
42430;SDS011;71905;47.466;19.024;2023-10-31T14:09:04;3.13;;;1.88;;
42430;SDS011;71905;47.466;19.024;2023-10-31T14:11:34;5.22;;;2.25;;
42430;SDS011;71905;47.466;19.024;2023-10-31T14:14:02;2.53;;;1.98;;
42430;SDS011;71905;47.466;19.024;2023-10-31T14:16:33;2.95;;;2.03;;
42430;SDS011;71905;47.466;19.024;2023-10-31T14:19:02;4.38;;;3.40;;
42430;SDS011;71905;47.466;19.024;2023-10-31T14:21:30;3.20;;;2.13;;
42430;SDS011;71905;47.466;19.024;2023-10-31T14:23:58;3.03;;;1.60;;
42430;SDS011;71905;47.466;19.024;2023-10-31T14:26:36;3.55;;;1.70;;
42430;SDS011;71905;47.466;19.024;2023-10-31T14:29:07;3.47;;;1.70;;
42430;SDS011;71905;47.466;19.024;2023-10-31T14:31:37;3.45;;;1.48;;
42430;SDS011;71905;47.466;19.024;2023-10-31T14:34:08;2.92;;;1.60;;
42430;SDS011;71905;47.466;19.024;2023-10-31T14:36:36;1.77;;;0.90;;
42430;SDS011;71905;47.466;19.024;2023-10-31T14:39:04;1.77;;;1.00;;